createdAt,value
2023-04-02T00:01:50.745Z,8.80
2023-04-02T00:07:15.546Z,8.80
2023-04-02T00:12:20.047Z,8.80
2023-04-02T00:17:25.129Z,8.80
2023-04-02T00:22:31.547Z,8.90
2023-04-02T00:27:34.160Z,8.90
2023-04-02T00:32:37.521Z,8.90
2023-04-02T00:37:42.424Z,8.90
2023-04-02T00:42:46.768Z,8.80
2023-04-02T00:47:49.580Z,8.90
2023-04-02T00:52:54.182Z,8.90
2023-04-02T00:57:59.835Z,8.80
2023-04-02T01:03:37.262Z,8.80
2023-04-02T01:09:04.941Z,8.80
2023-04-02T01:14:37.742Z,8.80
2023-04-02T01:19:46.727Z,8.80
2023-04-02T01:24:49.981Z,8.80
2023-04-02T01:29:57.833Z,8.80
2023-04-02T01:35:01.578Z,8.80
2023-04-02T01:40:36.154Z,8.90
2023-04-02T01:45:39.347Z,8.90
2023-04-02T01:50:45.639Z,8.90
2023-04-02T01:55:53.431Z,8.90
2023-04-02T02:01:12.934Z,8.90
2023-04-02T02:06:18.344Z,8.90
2023-04-02T02:11:24.546Z,8.90
2023-04-02T02:16:29.916Z,8.90
2023-04-02T02:21:42.181Z,8.90
2023-04-02T02:26:48.117Z,8.90
2023-04-02T02:31:55.116Z,8.90
2023-04-02T02:37:23.919Z,8.90
2023-04-02T02:42:40.094Z,8.90
2023-04-02T02:47:45.806Z,8.90
2023-04-02T02:52:58.301Z,8.70
2023-04-02T02:58:09.061Z,8.70
2023-04-02T03:03:26.818Z,8.70
2023-04-02T03:09:03.260Z,8.70
2023-04-02T03:14:37.805Z,8.70
2023-04-02T03:19:43.706Z,8.60
2023-04-02T03:25:01.987Z,8.50
2023-04-02T03:30:38.176Z,8.50
2023-04-02T03:36:03.169Z,8.50
2023-04-02T03:41:29.882Z,8.60
2023-04-02T03:46:48.801Z,8.50
2023-04-02T03:52:18.085Z,8.50
2023-04-02T03:57:53.070Z,8.50
2023-04-02T04:03:11.701Z,8.50
2023-04-02T04:08:18.922Z,8.40
2023-04-02T04:13:31.435Z,8.40
2023-04-02T04:18:57.305Z,8.50
2023-04-02T04:24:16.078Z,8.50
2023-04-02T04:29:34.745Z,8.50
2023-04-02T04:34:47.058Z,8.50
2023-04-02T04:39:58.253Z,8.50
2023-04-02T04:45:12.766Z,8.50
2023-04-02T04:50:21.475Z,8.40
2023-04-02T04:55:35.692Z,8.40
2023-04-02T05:01:04.037Z,8.40
2023-04-02T05:06:23.707Z,8.40
2023-04-02T05:11:41.543Z,8.30
2023-04-02T05:17:03.734Z,8.30
2023-04-02T05:22:22.486Z,8.30
2023-04-02T05:28:05.702Z,8.30
2023-04-02T05:33:27.287Z,8.40
2023-04-02T05:38:44.050Z,8.30
2023-04-02T05:43:49.254Z,8.40
2023-04-02T05:48:57.096Z,8.40
2023-04-02T05:54:05.429Z,8.40
2023-04-02T05:59:41.887Z,8.40
2023-04-02T06:05:06.845Z,8.50
2023-04-02T06:10:54.594Z,8.30
2023-04-02T06:16:01.360Z,8.30
2023-04-02T06:21:09.355Z,8.30
2023-04-02T06:26:32.309Z,8.20
2023-04-02T06:31:49.531Z,8.10
2023-04-02T06:37:00.309Z,8.20
2023-04-02T06:42:13.359Z,8.10
2023-04-02T06:47:42.862Z,8.40
2023-04-02T06:53:05.471Z,8.50
2023-04-02T06:58:10.910Z,8.80
2023-04-02T07:03:25.254Z,9.00
2023-04-02T07:08:29.569Z,9.00
2023-04-02T07:13:32.421Z,9.10
2023-04-02T07:18:35.560Z,8.70
2023-04-02T07:23:42.198Z,8.70
2023-04-02T07:28:45.248Z,8.90
2023-04-02T07:33:48.486Z,8.90
2023-04-02T07:38:51.412Z,9.00
2023-04-02T07:43:54.508Z,9.20
2023-04-02T07:48:57.186Z,9.30
2023-04-02T07:54:02.099Z,9.50
2023-04-02T07:59:05.726Z,9.30
2023-04-02T08:04:18.529Z,9.20
2023-04-02T08:09:21.245Z,9.00
2023-04-02T08:14:24.238Z,9.10
2023-04-02T08:19:26.997Z,8.90
2023-04-02T08:24:29.603Z,8.80
2023-04-02T08:29:35.106Z,8.90
2023-04-02T08:34:37.823Z,8.70
2023-04-02T08:39:41.505Z,8.60
2023-04-02T08:44:56.342Z,8.60
2023-04-02T08:50:20.391Z,8.60
2023-04-02T08:55:40.085Z,7.80
2023-04-02T09:00:45.834Z,7.10
2023-04-02T09:05:51.475Z,7.00
2023-04-02T09:11:26.379Z,6.80
2023-04-02T09:16:41.536Z,6.90
2023-04-02T09:22:04.781Z,6.90
2023-04-02T09:27:27.593Z,7.00
2023-04-02T09:32:50.598Z,6.90
2023-04-02T09:38:08.424Z,6.70
2023-04-02T09:43:22.858Z,6.60
2023-04-02T09:48:35.599Z,6.60
2023-04-02T09:53:42.591Z,6.60
2023-04-02T09:58:47.076Z,6.60
2023-04-02T10:03:50.167Z,6.30
2023-04-02T10:08:52.931Z,6.30
2023-04-02T10:14:06.260Z,6.30
2023-04-02T10:19:33.067Z,6.10
2023-04-02T10:24:35.728Z,6.10
2023-04-02T10:29:47.121Z,6.10
2023-04-02T10:35:06.459Z,6.20
2023-04-02T10:40:20.044Z,6.10
2023-04-02T10:45:47.356Z,6.20
2023-04-02T10:51:00.826Z,6.20
2023-04-02T10:56:09.571Z,6.30
2023-04-02T11:01:20.058Z,6.30
2023-04-02T11:06:30.684Z,6.40
2023-04-02T11:11:40.408Z,6.40
2023-04-02T11:16:44.747Z,6.60
2023-04-02T11:22:18.045Z,6.50
2023-04-02T11:27:26.309Z,6.30
2023-04-02T11:32:40.244Z,6.10
2023-04-02T11:37:45.320Z,6.30
2023-04-02T11:42:49.545Z,6.10
2023-04-02T11:48:01.566Z,6.10
2023-04-02T11:53:19.902Z,6.00
2023-04-02T11:58:40.544Z,6.00
2023-04-02T12:04:13.675Z,5.90
2023-04-02T12:09:27.514Z,5.90
2023-04-02T12:14:48.759Z,5.80
2023-04-02T12:19:55.179Z,5.90
2023-04-02T12:25:27.122Z,6.30
2023-04-02T12:30:29.736Z,6.30
2023-04-02T12:35:36.784Z,6.00
2023-04-02T12:40:39.494Z,5.90
2023-04-02T12:45:43.097Z,5.80
2023-04-02T12:50:46.146Z,5.90
2023-04-02T12:55:51.101Z,6.00
2023-04-02T13:01:08.931Z,6.30
2023-04-02T13:06:23.310Z,6.20
2023-04-02T13:11:37.332Z,5.90
2023-04-02T13:16:41.030Z,5.70
2023-04-02T13:21:44.925Z,5.80
2023-04-02T13:26:49.944Z,5.80
2023-04-02T13:31:54.636Z,5.90
2023-04-02T13:36:58.618Z,5.80
2023-04-02T13:42:04.017Z,5.70
2023-04-02T13:47:06.738Z,5.70
2023-04-02T13:52:15.269Z,5.70
2023-04-02T13:57:18.396Z,5.60
2023-04-02T14:02:24.835Z,5.50
2023-04-02T14:07:47.237Z,5.50
2023-04-02T14:13:22.451Z,5.50
2023-04-02T14:18:58.120Z,5.50
2023-04-02T14:24:21.053Z,5.50
2023-04-02T14:29:29.576Z,5.50
2023-04-02T14:34:52.249Z,5.60
2023-04-02T14:40:04.286Z,5.50
2023-04-02T14:45:22.756Z,5.60
2023-04-02T14:50:33.318Z,5.50
2023-04-02T14:55:48.635Z,5.50
2023-04-02T15:01:03.397Z,5.50
2023-04-02T15:06:10.976Z,5.50
2023-04-02T15:11:29.286Z,5.60
2023-04-02T15:16:33.536Z,5.60
2023-04-02T15:21:58.934Z,5.40
2023-04-02T15:27:14.710Z,5.40
2023-04-02T15:32:31.575Z,5.40
2023-04-02T15:38:00.061Z,5.30
2023-04-02T15:43:06.435Z,5.20
2023-04-02T15:48:46.563Z,5.20
2023-04-02T15:54:12.025Z,5.10
2023-04-02T15:59:17.796Z,5.10
2023-04-02T16:04:29.839Z,5.10
2023-04-02T16:09:56.387Z,5.10
2023-04-02T16:15:36.565Z,5.10
2023-04-02T16:20:47.323Z,4.80
2023-04-02T16:26:01.376Z,4.80
2023-04-02T16:31:12.649Z,4.70
2023-04-02T16:36:35.269Z,4.70
2023-04-02T16:41:59.729Z,4.70
2023-04-02T16:47:15.298Z,4.70
2023-04-02T16:53:13.319Z,4.60
2023-04-02T16:58:31.190Z,4.60
2023-04-02T17:03:42.695Z,4.60
2023-04-02T17:09:01.621Z,4.60
2023-04-02T17:14:23.199Z,4.60
2023-04-02T17:19:27.883Z,4.50
2023-04-02T17:24:39.306Z,4.50
2023-04-02T17:29:45.678Z,4.50
2023-04-02T17:34:48.749Z,4.40
2023-04-02T17:40:19.621Z,4.40
2023-04-02T17:45:22.470Z,4.30
2023-04-02T17:50:39.241Z,4.30
2023-04-02T17:55:55.549Z,4.30
2023-04-02T18:01:17.620Z,4.30
2023-04-02T18:06:56.271Z,4.20
2023-04-02T18:12:07.099Z,4.20
2023-04-02T18:17:28.521Z,4.20
2023-04-02T18:22:45.205Z,4.20
2023-04-02T18:27:56.000Z,4.10
2023-04-02T18:33:18.792Z,4.10
2023-04-02T18:38:48.020Z,4.00
2023-04-02T18:44:24.475Z,4.00
2023-04-02T18:49:36.839Z,4.00
2023-04-02T18:55:05.516Z,3.90
2023-04-02T19:00:22.310Z,3.90
2023-04-02T19:05:44.945Z,4.00
2023-04-02T19:10:53.087Z,4.00
2023-04-02T19:16:25.399Z,4.00
2023-04-02T19:21:53.913Z,4.00
2023-04-02T19:27:38.457Z,4.00
2023-04-02T19:32:59.775Z,4.10
2023-04-02T19:38:16.476Z,4.10
2023-04-02T19:43:19.641Z,4.10
2023-04-02T19:48:26.899Z,4.10
2023-04-02T19:53:29.580Z,4.10
2023-04-02T19:58:36.501Z,4.10
2023-04-02T20:03:39.381Z,4.10
2023-04-02T20:08:42.198Z,3.90
2023-04-02T20:13:45.005Z,3.90
2023-04-02T20:18:47.772Z,3.80
2023-04-02T20:23:55.148Z,3.80
2023-04-02T20:28:58.291Z,3.90
2023-04-02T20:34:02.948Z,3.80
2023-04-02T20:39:08.472Z,3.90
2023-04-02T20:44:11.501Z,3.90
2023-04-02T20:49:14.365Z,3.80
2023-04-02T20:54:17.282Z,3.80
2023-04-02T20:59:19.964Z,3.80
2023-04-02T21:04:22.836Z,3.90
2023-04-02T21:09:25.560Z,3.90
2023-04-02T21:14:28.404Z,3.80
2023-04-02T21:19:32.967Z,3.80
2023-04-02T21:24:35.842Z,3.70
2023-04-02T21:29:38.783Z,3.70
2023-04-02T21:34:41.801Z,3.70
2023-04-02T21:39:44.745Z,3.70
2023-04-02T21:44:47.514Z,3.70
2023-04-02T21:49:50.384Z,3.60
2023-04-02T21:54:53.075Z,3.50
2023-04-02T21:59:57.224Z,3.50
2023-04-02T22:05:00.084Z,3.40
2023-04-02T22:10:03.197Z,3.30
2023-04-02T22:15:06.469Z,3.20
2023-04-02T22:20:09.888Z,3.30
2023-04-02T22:25:12.682Z,3.20
2023-04-02T22:30:15.604Z,3.20
2023-04-02T22:35:18.531Z,3.20
2023-04-02T22:40:21.465Z,3.30
2023-04-02T22:45:24.903Z,3.30
2023-04-02T22:50:28.143Z,3.30
2023-04-02T22:55:31.167Z,3.30
2023-04-02T23:00:34.101Z,3.30
2023-04-02T23:05:37.043Z,3.10
2023-04-02T23:10:39.702Z,3.00
2023-04-02T23:15:44.980Z,3.10
2023-04-02T23:20:47.623Z,3.00
2023-04-02T23:25:50.576Z,3.00
2023-04-02T23:30:53.721Z,2.90
2023-04-02T23:35:56.576Z,2.80
2023-04-02T23:40:59.478Z,2.80
2023-04-02T23:46:02.192Z,2.80
2023-04-02T23:51:05.029Z,2.70
2023-04-02T23:56:07.823Z,2.70
